createdAt,value
2018-06-29T00:01:21.210Z,100196.00
2018-06-29T00:03:49.097Z,100200.00
2018-06-29T00:06:17.136Z,100194.00
2018-06-29T00:08:44.999Z,100195.00
2018-06-29T00:11:12.846Z,100200.00
2018-06-29T00:13:40.700Z,100196.00
2018-06-29T00:16:08.546Z,100204.00
2018-06-29T00:18:36.441Z,100196.00
2018-06-29T00:21:04.520Z,100187.00
2018-06-29T00:23:32.418Z,100195.00
2018-06-29T00:26:00.264Z,100185.00
2018-06-29T00:28:28.152Z,100178.00
2018-06-29T00:30:56.014Z,100179.00
2018-06-29T00:33:23.840Z,100176.00
2018-06-29T00:35:51.757Z,100175.00
2018-06-29T00:38:19.507Z,100170.00
2018-06-29T00:40:47.322Z,100179.00
2018-06-29T00:43:15.279Z,100178.00
2018-06-29T00:45:43.190Z,100174.00
2018-06-29T00:48:11.116Z,100175.00
2018-06-29T00:50:38.988Z,100164.00
2018-06-29T00:53:06.905Z,100172.00
2018-06-29T00:55:34.760Z,100173.00
2018-06-29T00:58:02.634Z,100176.00
2018-06-29T01:00:30.523Z,100182.00
2018-06-29T01:02:58.427Z,100179.00
2018-06-29T01:05:26.346Z,100180.00
2018-06-29T01:07:54.687Z,100186.00
2018-06-29T01:10:22.644Z,100182.00
2018-06-29T01:12:50.579Z,100184.00
2018-06-29T01:15:18.525Z,100172.00
2018-06-29T01:17:46.393Z,100178.00
2018-06-29T01:20:14.250Z,100184.00
2018-06-29T01:22:42.197Z,100187.00
2018-06-29T01:25:10.117Z,100176.00
2018-06-29T01:27:38.005Z,100173.00
2018-06-29T01:30:05.901Z,100181.00
2018-06-29T01:32:33.812Z,100177.00
2018-06-29T01:46:52.750Z,100166.00
2018-06-29T01:49:20.561Z,100173.00
2018-06-29T01:51:48.507Z,100170.00
2018-06-29T01:54:16.364Z,100171.00
2018-06-29T01:56:44.230Z,100162.00
2018-06-29T01:59:12.158Z,100156.00
2018-06-29T02:01:40.021Z,100160.00
2018-06-29T02:04:07.912Z,100164.00
2018-06-29T02:06:35.758Z,100147.00
2018-06-29T02:09:06.334Z,100164.00
2018-06-29T02:11:34.215Z,100164.00
2018-06-29T02:14:02.255Z,100160.00
2018-06-29T02:16:30.158Z,100156.00
2018-06-29T02:18:57.997Z,100145.00
2018-06-29T02:21:25.959Z,100139.00
2018-06-29T02:23:53.770Z,100142.00
2018-06-29T02:26:21.643Z,100144.00
2018-06-29T02:28:49.570Z,100140.00
2018-06-29T02:31:17.449Z,100141.00
2018-06-29T02:33:45.403Z,100134.00
2018-06-29T02:36:13.288Z,100135.00
2018-06-29T02:38:41.287Z,100127.00
2018-06-29T02:41:09.160Z,100121.00
2018-06-29T02:43:37.031Z,100134.00
2018-06-29T02:46:04.938Z,100131.00
2018-06-29T02:48:32.831Z,100132.00
2018-06-29T02:51:00.791Z,100135.00
2018-06-29T02:53:28.718Z,100129.00
2018-06-29T02:55:56.639Z,100126.00
2018-06-29T02:58:24.506Z,100118.00
2018-06-29T03:00:52.418Z,100117.00
2018-06-29T03:03:20.338Z,100130.00
2018-06-29T03:05:48.219Z,100128.00
2018-06-29T03:08:16.043Z,100136.00
2018-06-29T03:10:43.947Z,100125.00
2018-06-29T03:13:11.843Z,100132.00
2018-06-29T03:15:39.675Z,100144.00
2018-06-29T03:18:07.478Z,100148.00
2018-06-29T03:20:35.372Z,100147.00
2018-06-29T03:23:03.236Z,100156.00
2018-06-29T03:25:31.167Z,100147.00
2018-06-29T03:27:59.045Z,100146.00
2018-06-29T03:30:26.940Z,100155.00
2018-06-29T03:32:54.848Z,100153.00
2018-06-29T03:35:22.750Z,100149.00
2018-06-29T03:37:50.642Z,100147.00
2018-06-29T03:40:18.521Z,100140.00
2018-06-29T03:42:46.338Z,100143.00
2018-06-29T03:45:14.179Z,100144.00
2018-06-29T03:47:42.055Z,100145.00
2018-06-29T03:50:09.946Z,100143.00
2018-06-29T03:52:37.808Z,100144.00
2018-06-29T03:55:05.738Z,100139.00
2018-06-29T03:57:33.567Z,100139.00
2018-06-29T04:00:01.503Z,100146.00
2018-06-29T04:02:29.434Z,100141.00
2018-06-29T04:04:57.361Z,100136.00
2018-06-29T04:07:25.126Z,100130.00
2018-06-29T04:09:52.983Z,100129.00
2018-06-29T04:12:20.939Z,100132.00
2018-06-29T04:14:48.795Z,100134.00
2018-06-29T04:17:16.605Z,100134.00
2018-06-29T04:19:44.455Z,100131.00
2018-06-29T04:22:12.296Z,100125.00
2018-06-29T04:24:40.224Z,100129.00
2018-06-29T04:27:08.130Z,100128.00
2018-06-29T04:29:36.005Z,100132.00
2018-06-29T04:32:04.003Z,100130.00
2018-06-29T04:34:31.894Z,100132.00
2018-06-29T04:36:59.842Z,100133.00
2018-06-29T04:39:27.679Z,100128.00
2018-06-29T04:41:55.579Z,100132.00
2018-06-29T04:44:23.452Z,100133.00
2018-06-29T04:46:51.256Z,100136.00
2018-06-29T04:49:19.133Z,100125.00
2018-06-29T04:51:47.030Z,100124.00
2018-06-29T04:54:14.942Z,100133.00
2018-06-29T04:56:42.758Z,100109.00
2018-06-29T04:59:10.637Z,100108.00
2018-06-29T05:01:38.417Z,100113.00
2018-06-29T05:04:06.250Z,100118.00
2018-06-29T05:06:34.031Z,100133.00
2018-06-29T05:09:01.867Z,100130.00
2018-06-29T05:11:29.783Z,100139.00
2018-06-29T05:13:57.618Z,100135.00
2018-06-29T05:16:25.492Z,100154.00
2018-06-29T05:18:53.298Z,100165.00
2018-06-29T05:21:21.211Z,100159.00
2018-06-29T05:23:48.970Z,100155.00
2018-06-29T05:26:16.730Z,100154.00
2018-06-29T05:28:44.531Z,100149.00
2018-06-29T05:31:12.410Z,100159.00
2018-06-29T05:33:40.205Z,100168.00
2018-06-29T05:36:08.035Z,100161.00
2018-06-29T05:38:35.933Z,100170.00
2018-06-29T05:41:03.732Z,100172.00
2018-06-29T05:43:31.580Z,100162.00
2018-06-29T05:45:59.431Z,100159.00
2018-06-29T05:48:27.231Z,100162.00
2018-06-29T05:50:55.202Z,100172.00
2018-06-29T05:53:23.031Z,100160.00
2018-06-29T05:55:50.898Z,100167.00
2018-06-29T05:58:18.756Z,100178.00
2018-06-29T06:00:46.636Z,100185.00
2018-06-29T06:03:14.427Z,100187.00
2018-06-29T06:05:42.318Z,100164.00
2018-06-29T06:08:10.176Z,100183.00
2018-06-29T06:10:38.019Z,100167.00
2018-06-29T06:13:05.879Z,100169.00
2018-06-29T06:15:33.682Z,100164.00
2018-06-29T06:18:01.536Z,100167.00
2018-06-29T06:20:29.395Z,100168.00
2018-06-29T06:23:12.705Z,100156.00
2018-06-29T06:25:40.532Z,100162.00
2018-06-29T06:28:08.381Z,100146.00
2018-06-29T06:30:36.193Z,100133.00
2018-06-29T06:33:04.053Z,100124.00
2018-06-29T06:35:31.835Z,100126.00
2018-06-29T06:37:59.581Z,100118.00
2018-06-29T06:40:27.344Z,100112.00
2018-06-29T06:42:55.106Z,100106.00
2018-06-29T06:45:22.973Z,100088.00
2018-06-29T06:47:50.762Z,100084.00
2018-06-29T06:50:18.681Z,100096.00
2018-06-29T06:52:46.567Z,100099.00
2018-06-29T06:55:14.415Z,100103.00
2018-06-29T06:57:42.202Z,100116.00
2018-06-29T07:00:09.971Z,100123.00
2018-06-29T07:02:37.779Z,100123.00
2018-06-29T07:05:05.631Z,100116.00
2018-06-29T07:07:33.525Z,100127.00
2018-06-29T07:10:01.325Z,100139.00
2018-06-29T07:12:29.144Z,100123.00
2018-06-29T07:14:56.986Z,100135.00
2018-06-29T07:17:24.798Z,100146.00
2018-06-29T07:19:52.689Z,100130.00
2018-06-29T07:22:20.562Z,100148.00
2018-06-29T07:24:48.366Z,100140.00
2018-06-29T07:27:16.167Z,100144.00
2018-06-29T07:29:44.021Z,100152.00
2018-06-29T07:32:11.832Z,100157.00
2018-06-29T07:34:39.595Z,100161.00
2018-06-29T07:37:07.451Z,100119.00
2018-06-29T07:39:35.327Z,100107.00
2018-06-29T07:42:03.467Z,100182.00
2018-06-29T07:44:31.287Z,100179.00
2018-06-29T07:46:59.204Z,100182.00
2018-06-29T07:49:27.047Z,100186.00
2018-06-29T07:51:54.944Z,100177.00
2018-06-29T07:54:22.796Z,100175.00
2018-06-29T07:56:50.727Z,100179.00
2018-06-29T07:59:18.563Z,100165.00
2018-06-29T08:01:46.362Z,100151.00
2018-06-29T08:04:14.208Z,100150.00
2018-06-29T08:06:42.011Z,100150.00
2018-06-29T08:09:10.858Z,100155.00
2018-06-29T08:11:38.695Z,100165.00
2018-06-29T08:14:06.645Z,100158.00
2018-06-29T08:16:34.514Z,100159.00
2018-06-29T08:19:02.321Z,100165.00
2018-06-29T08:21:30.210Z,100161.00
2018-06-29T08:23:58.145Z,100165.00
2018-06-29T08:26:27.270Z,100153.00
2018-06-29T08:28:55.087Z,100158.00
2018-06-29T08:31:22.894Z,100159.00
2018-06-29T08:33:50.764Z,100155.00
2018-06-29T08:36:18.687Z,100163.00
2018-06-29T08:38:46.688Z,100171.00
2018-06-29T08:41:14.514Z,100162.00
2018-06-29T08:43:42.332Z,100164.00
2018-06-29T08:46:10.203Z,100159.00
2018-06-29T08:48:38.055Z,100160.00
2018-06-29T08:51:05.843Z,100154.00
2018-06-29T08:53:33.706Z,100146.00
2018-06-29T08:56:01.618Z,100147.00
2018-06-29T08:58:29.503Z,100146.00
2018-06-29T09:00:57.396Z,100144.00
2018-06-29T09:03:25.223Z,100143.00
2018-06-29T09:05:52.999Z,100145.00
2018-06-29T09:08:20.827Z,100140.00
2018-06-29T09:10:48.698Z,100138.00
2018-06-29T09:13:16.586Z,100133.00
2018-06-29T09:15:44.460Z,100137.00
2018-06-29T09:18:12.328Z,100141.00
2018-06-29T09:20:40.199Z,100137.00
2018-06-29T09:23:08.100Z,100131.00
2018-06-29T09:25:36.010Z,100125.00
2018-06-29T09:28:03.842Z,100126.00
2018-06-29T09:30:31.707Z,100131.00
2018-06-29T09:32:59.550Z,100119.00
2018-06-29T09:35:27.371Z,100116.00
2018-06-29T09:37:55.211Z,100112.00
2018-06-29T09:40:22.978Z,100110.00
2018-06-29T09:42:50.886Z,100108.00
2018-06-29T09:45:18.755Z,100098.00
2018-06-29T09:47:46.600Z,100101.00
2018-06-29T09:50:14.425Z,100096.00
2018-06-29T09:52:42.244Z,100097.00
2018-06-29T09:55:10.133Z,100094.00
2018-06-29T09:57:38.010Z,100092.00
2018-06-29T10:00:07.991Z,100092.00
2018-06-29T10:02:39.276Z,100080.00
2018-06-29T10:05:04.268Z,100096.00
2018-06-29T10:07:32.095Z,100091.00
2018-06-29T10:09:59.867Z,100086.00
2018-06-29T10:12:27.693Z,100075.00
2018-06-29T10:14:55.589Z,100085.00
2018-06-29T10:17:23.488Z,100085.00
2018-06-29T10:19:51.558Z,100085.00
2018-06-29T10:22:19.319Z,100077.00
2018-06-29T10:24:47.078Z,100074.00
2018-06-29T10:27:14.952Z,100062.00
2018-06-29T10:29:42.842Z,100064.00
2018-06-29T10:32:10.673Z,100068.00
2018-06-29T10:34:38.501Z,100074.00
2018-06-29T10:37:06.320Z,100074.00
2018-06-29T10:39:34.263Z,100076.00
2018-06-29T10:42:02.101Z,100076.00
2018-06-29T10:44:29.970Z,100062.00
2018-06-29T10:46:57.766Z,100067.00
2018-06-29T10:49:25.658Z,100062.00
2018-06-29T10:51:53.451Z,100058.00
2018-06-29T10:54:21.290Z,100059.00
2018-06-29T10:56:49.087Z,100066.00
2018-06-29T10:59:16.962Z,100052.00
2018-06-29T11:01:44.806Z,100054.00
2018-06-29T11:04:12.653Z,100048.00
2018-06-29T11:06:40.487Z,100049.00
2018-06-29T11:09:09.174Z,100053.00
2018-06-29T11:11:37.003Z,100053.00
2018-06-29T11:14:05.681Z,100063.00
2018-06-29T11:16:33.475Z,100049.00
2018-06-29T11:19:01.346Z,100050.00
2018-06-29T11:21:29.194Z,100047.00
2018-06-29T11:23:57.034Z,100041.00
2018-06-29T11:26:24.895Z,100051.00
2018-06-29T11:28:52.806Z,100048.00
2018-06-29T11:31:20.675Z,100045.00
2018-06-29T11:33:48.561Z,100039.00
2018-06-29T11:36:16.736Z,100031.00
2018-06-29T11:38:44.609Z,100036.00
2018-06-29T11:41:12.546Z,100030.00
2018-06-29T11:43:40.407Z,100032.00
2018-06-29T11:46:08.316Z,100033.00
2018-06-29T11:48:36.125Z,100026.00
2018-06-29T11:51:03.961Z,100033.00
2018-06-29T11:53:31.820Z,100025.00
2018-06-29T11:55:59.674Z,100021.00
2018-06-29T11:58:27.545Z,100004.00
2018-06-29T12:00:55.379Z,100005.00
2018-06-29T12:03:23.263Z,100005.00
2018-06-29T12:05:51.183Z,100010.00
2018-06-29T12:08:19.029Z,100005.00
2018-06-29T12:10:46.858Z,100004.00
2018-06-29T12:13:14.712Z,99989.00
2018-06-29T12:15:42.546Z,99989.00
2018-06-29T12:18:10.331Z,99988.00
2018-06-29T12:20:38.242Z,99987.00
2018-06-29T12:23:06.150Z,99976.00
2018-06-29T12:25:34.077Z,99979.00
2018-06-29T12:28:01.989Z,99984.00
2018-06-29T12:30:29.788Z,99980.00
2018-06-29T12:32:57.621Z,99976.00
2018-06-29T12:35:33.050Z,99966.00
2018-06-29T12:38:01.071Z,99969.00
2018-06-29T12:40:28.910Z,99955.00
2018-06-29T12:42:56.799Z,99960.00
2018-06-29T12:45:24.679Z,99956.00
2018-06-29T12:47:52.554Z,99951.00
2018-06-29T12:50:20.409Z,99947.00
2018-06-29T12:52:48.219Z,99944.00
2018-06-29T12:55:16.038Z,99936.00
2018-06-29T12:57:43.928Z,99931.00
2018-06-29T13:00:11.875Z,99933.00
2018-06-29T13:02:39.738Z,99936.00
2018-06-29T13:05:07.652Z,99936.00
2018-06-29T13:07:35.439Z,99928.00
2018-06-29T13:10:03.589Z,99916.00
2018-06-29T13:12:31.467Z,99917.00
2018-06-29T13:14:59.311Z,99923.00
2018-06-29T13:17:27.249Z,99924.00
2018-06-29T13:19:55.119Z,99905.00
2018-06-29T13:22:23.003Z,99904.00
2018-06-29T13:24:50.838Z,99895.00
2018-06-29T13:27:18.727Z,99912.00
2018-06-29T13:29:46.650Z,99901.00
2018-06-29T13:32:14.350Z,99891.00
2018-06-29T13:34:42.206Z,99889.00
2018-06-29T13:37:10.071Z,99886.00
2018-06-29T13:39:37.913Z,99884.00
2018-06-29T13:42:06.064Z,99890.00
2018-06-29T13:44:33.920Z,99890.00
2018-06-29T13:47:01.804Z,99886.00
2018-06-29T13:49:29.637Z,99881.00
2018-06-29T13:51:57.427Z,99892.00
2018-06-29T13:54:25.222Z,99885.00
2018-06-29T13:56:53.036Z,99887.00
2018-06-29T13:59:20.865Z,99885.00
2018-06-29T14:01:48.802Z,99882.00
2018-06-29T14:04:16.611Z,99875.00
2018-06-29T14:06:44.439Z,99869.00
2018-06-29T14:09:12.254Z,99866.00
2018-06-29T14:11:40.075Z,99875.00
2018-06-29T14:14:07.955Z,99860.00
2018-06-29T14:16:35.830Z,99871.00
2018-06-29T14:19:03.929Z,99855.00
2018-06-29T14:21:31.774Z,99850.00
2018-06-29T14:23:59.692Z,99849.00
2018-06-29T14:26:27.564Z,99851.00
2018-06-29T14:28:55.436Z,99863.00
2018-06-29T14:31:23.325Z,99856.00
2018-06-29T14:33:51.138Z,99860.00
2018-06-29T14:36:19.099Z,99851.00
2018-06-29T14:38:46.914Z,99854.00
2018-06-29T14:41:14.747Z,99848.00
2018-06-29T14:43:42.582Z,99840.00
2018-06-29T14:46:10.522Z,99841.00
2018-06-29T14:48:38.389Z,99833.00
2018-06-29T14:51:06.261Z,99849.00
2018-06-29T14:53:34.067Z,99838.00
2018-06-29T14:56:01.931Z,99842.00
2018-06-29T14:58:29.798Z,99835.00
2018-06-29T15:00:57.687Z,99826.00
2018-06-29T15:03:25.550Z,99827.00
2018-06-29T15:05:53.454Z,99824.00
2018-06-29T15:08:21.310Z,99818.00
2018-06-29T15:10:49.113Z,99826.00
2018-06-29T15:13:16.965Z,99823.00
2018-06-29T15:15:44.836Z,99826.00
2018-06-29T15:18:12.527Z,99818.00
2018-06-29T15:20:40.410Z,99826.00
2018-06-29T15:23:08.169Z,99810.00
2018-06-29T15:25:35.992Z,99819.00
2018-06-29T15:28:04.015Z,99805.00
2018-06-29T15:30:31.934Z,99797.00
2018-06-29T15:32:59.754Z,99803.00
2018-06-29T15:35:27.747Z,99792.00
2018-06-29T15:37:55.579Z,99810.00
2018-06-29T15:40:23.424Z,99808.00
2018-06-29T15:42:51.239Z,99806.00
2018-06-29T15:45:19.126Z,99793.00
2018-06-29T15:47:47.043Z,99797.00
2018-06-29T15:50:14.882Z,99805.00
2018-06-29T15:52:42.775Z,99798.00
2018-06-29T15:55:10.676Z,99803.00
2018-06-29T15:57:38.492Z,99804.00
2018-06-29T16:00:08.540Z,99791.00
2018-06-29T16:02:52.519Z,99795.00
2018-06-29T16:05:20.354Z,99799.00
2018-06-29T16:07:48.134Z,99793.00
2018-06-29T16:10:16.019Z,99791.00
2018-06-29T16:12:43.891Z,99797.00
2018-06-29T16:15:11.760Z,99797.00
2018-06-29T16:17:39.649Z,99807.00
2018-06-29T16:20:07.557Z,99800.00
2018-06-29T16:22:35.580Z,99793.00
2018-06-29T16:25:03.509Z,99792.00
2018-06-29T16:27:31.354Z,99795.00
2018-06-29T16:29:59.229Z,99797.00
2018-06-29T16:32:27.075Z,99796.00
2018-06-29T16:34:54.994Z,99791.00
2018-06-29T16:37:22.839Z,99797.00
2018-06-29T16:39:50.722Z,99792.00
2018-06-29T16:42:18.606Z,99797.00
2018-06-29T16:44:46.560Z,99799.00
2018-06-29T16:47:14.442Z,99789.00
2018-06-29T16:49:42.279Z,99788.00
2018-06-29T16:52:10.123Z,99788.00
2018-06-29T16:54:38.002Z,99795.00
2018-06-29T16:57:05.884Z,99793.00
2018-06-29T16:59:33.826Z,99791.00
2018-06-29T17:02:01.697Z,99789.00
2018-06-29T17:04:29.562Z,99790.00
2018-06-29T17:06:57.413Z,99792.00
2018-06-29T17:09:25.255Z,99789.00
2018-06-29T17:11:53.110Z,99786.00
2018-06-29T17:14:20.962Z,99785.00
2018-06-29T17:16:48.883Z,99785.00
2018-06-29T17:19:16.695Z,99784.00
2018-06-29T17:21:44.559Z,99787.00
2018-06-29T17:24:12.379Z,99791.00
2018-06-29T17:26:40.219Z,99794.00
2018-06-29T17:29:08.579Z,99790.00
2018-06-29T17:31:36.339Z,99784.00
2018-06-29T17:34:04.221Z,99789.00
2018-06-29T17:36:31.873Z,99788.00
2018-06-29T17:38:59.674Z,99797.00
2018-06-29T17:41:27.493Z,99797.00
2018-06-29T17:43:55.224Z,99790.00
2018-06-29T17:46:23.219Z,99787.00
2018-06-29T17:48:51.086Z,99788.00
2018-06-29T17:51:18.923Z,99787.00
2018-06-29T17:53:46.821Z,99786.00
2018-06-29T17:56:14.671Z,99791.00
2018-06-29T17:58:42.489Z,99786.00
2018-06-29T18:01:10.255Z,99793.00
2018-06-29T18:03:37.984Z,99780.00
2018-06-29T18:06:05.791Z,99786.00
2018-06-29T18:08:33.599Z,99785.00
2018-06-29T18:11:01.371Z,99787.00
2018-06-29T18:13:29.090Z,99788.00
2018-06-29T18:15:56.964Z,99785.00
2018-06-29T18:18:24.796Z,99785.00
2018-06-29T18:20:52.651Z,99779.00
2018-06-29T18:23:20.552Z,99777.00
2018-06-29T18:25:48.312Z,99787.00
2018-06-29T18:28:16.259Z,99783.00
2018-06-29T18:30:44.089Z,99782.00
2018-06-29T18:33:15.858Z,99787.00
2018-06-29T18:35:44.414Z,99781.00
2018-06-29T18:38:12.235Z,99779.00
2018-06-29T18:40:40.012Z,99780.00
2018-06-29T18:43:08.213Z,99788.00
2018-06-29T18:45:36.269Z,99780.00
2018-06-29T18:48:04.348Z,99780.00
2018-06-29T18:50:32.206Z,99784.00
2018-06-29T18:53:00.130Z,99786.00
2018-06-29T18:55:28.003Z,99786.00
2018-06-29T18:57:55.814Z,99789.00
2018-06-29T19:00:23.671Z,99790.00
2018-06-29T19:02:51.514Z,99792.00
2018-06-29T19:05:19.490Z,99794.00
2018-06-29T19:07:47.304Z,99798.00
2018-06-29T19:10:15.128Z,99790.00
2018-06-29T19:12:43.074Z,99800.00
2018-06-29T19:15:10.989Z,99810.00
2018-06-29T19:17:39.158Z,99813.00
2018-06-29T19:20:07.226Z,99819.00
2018-06-29T19:22:35.098Z,99824.00
2018-06-29T19:25:02.971Z,99825.00
2018-06-29T19:27:30.745Z,99829.00
2018-06-29T19:29:58.571Z,99834.00
2018-06-29T19:32:26.455Z,99836.00
2018-06-29T19:34:54.294Z,99852.00
2018-06-29T19:37:22.098Z,99853.00
2018-06-29T19:39:49.947Z,99848.00
2018-06-29T19:42:17.864Z,99848.00
2018-06-29T19:44:45.783Z,99856.00
2018-06-29T19:47:13.668Z,99858.00
2018-06-29T19:49:41.658Z,99871.00
2018-06-29T19:52:09.537Z,99873.00
2018-06-29T19:54:37.307Z,99875.00
2018-06-29T19:57:05.683Z,99874.00
2018-06-29T19:59:33.518Z,99876.00
2018-06-29T20:02:01.427Z,99890.00
2018-06-29T20:04:29.242Z,99889.00
2018-06-29T20:06:57.059Z,99892.00
2018-06-29T20:09:24.648Z,99902.00
2018-06-29T20:11:52.286Z,99902.00
2018-06-29T20:14:19.862Z,99910.00
2018-06-29T20:16:47.434Z,99907.00
2018-06-29T20:19:14.993Z,99912.00
2018-06-29T20:21:42.550Z,99915.00
2018-06-29T20:24:10.121Z,99918.00
2018-06-29T20:26:37.693Z,99915.00
2018-06-29T20:29:05.278Z,99918.00
2018-06-29T20:31:32.879Z,99927.00
2018-06-29T20:34:00.451Z,99932.00
2018-06-29T20:36:28.019Z,99936.00
2018-06-29T20:38:55.811Z,99946.00
2018-06-29T20:41:23.923Z,99942.00
2018-06-29T20:43:52.203Z,99940.00
2018-06-29T20:46:20.006Z,99949.00
2018-06-29T20:48:47.870Z,99955.00
2018-06-29T20:51:15.781Z,99962.00
2018-06-29T20:53:43.701Z,99964.00
2018-06-29T20:56:11.513Z,99968.00
2018-06-29T20:58:39.310Z,99972.00
2018-06-29T21:01:07.286Z,99976.00
2018-06-29T21:03:35.259Z,99968.00
2018-06-29T21:06:03.271Z,99981.00
2018-06-29T21:08:31.138Z,99983.00
2018-06-29T21:10:59.050Z,99982.00
2018-06-29T21:19:37.518Z,99996.00
2018-06-29T21:22:17.959Z,100001.00
2018-06-29T21:25:05.141Z,100010.00
2018-06-29T21:27:32.687Z,100015.00
2018-06-29T21:30:10.800Z,100009.00
2018-06-29T21:38:50.109Z,100027.00
2018-06-29T21:44:17.841Z,100036.00
2018-06-29T21:46:45.389Z,100037.00
2018-06-29T21:49:12.945Z,100038.00
2018-06-29T21:54:41.463Z,100042.00
2018-06-29T22:00:18.876Z,100045.00
2018-06-29T22:03:12.867Z,100051.00
2018-06-29T22:05:41.690Z,100047.00
2018-06-29T22:08:10.088Z,100048.00
2018-06-29T22:10:38.703Z,100057.00
2018-06-29T22:13:10.223Z,100054.00
2018-06-29T22:15:38.063Z,100053.00
2018-06-29T22:18:21.099Z,100056.00
2018-06-29T22:20:51.030Z,100054.00
2018-06-29T22:26:19.415Z,100065.00
2018-06-29T22:28:51.366Z,100065.00
2018-06-29T22:34:42.270Z,100074.00
2018-06-29T22:37:09.809Z,100078.00
2018-06-29T22:42:49.121Z,100069.00
2018-06-29T22:45:16.681Z,100073.00
2018-06-29T22:47:44.234Z,100067.00
2018-06-29T22:50:11.838Z,100068.00
2018-06-29T22:52:39.394Z,100074.00
2018-06-29T22:55:06.990Z,100073.00
2018-06-29T22:57:34.541Z,100081.00
2018-06-29T23:00:02.110Z,100069.00
2018-06-29T23:02:29.662Z,100074.00
2018-06-29T23:04:57.248Z,100079.00
2018-06-29T23:07:24.839Z,100073.00
2018-06-29T23:09:52.394Z,100082.00
2018-06-29T23:12:19.949Z,100080.00
2018-06-29T23:14:47.506Z,100082.00
2018-06-29T23:17:15.078Z,100086.00
2018-06-29T23:19:42.658Z,100086.00
2018-06-29T23:22:10.237Z,100086.00
2018-06-29T23:24:37.823Z,100098.00
2018-06-29T23:27:05.502Z,100095.00
2018-06-29T23:29:33.062Z,100086.00
2018-06-29T23:32:00.633Z,100094.00
2018-06-29T23:34:28.216Z,100096.00
2018-06-29T23:36:55.794Z,100101.00
2018-06-29T23:39:23.390Z,100095.00
2018-06-29T23:41:51.229Z,100095.00
2018-06-29T23:44:19.134Z,100099.00
2018-06-29T23:46:46.994Z,100097.00
2018-06-29T23:49:14.791Z,100094.00
2018-06-29T23:51:43.426Z,100096.00
2018-06-29T23:54:11.338Z,100094.00
2018-06-29T23:56:39.170Z,100093.00
2018-06-29T23:59:06.966Z,100100.00
